Архив погоды в Каменск-Шахтинском

Метеограмма Каменск-Шахтинский
Пятница, 27 Апреля
Время местн. Темп Ветер Видим Явления Облачность нижн/средн/верх Атм. давл. Влжн Точка росы ВНГО R Сост. почвы Tg s
Напр Скр Прв ур.ст ур.м изм
06:00 +11.1° В,Ю-В 1 - 20 км - ясно 755 761 +0.2 77% +7.3° более 2.5 км - Сухая (без трещин) - -
03:00 +13.4° штиль 0 - 20 км - ясно 755 760 +0.5 67% +7.5° более 2.5 км - - - -
00:00 +17.1° З 5 11 20 км - ясно 755 760 +0.7 52% +7.2° более 2.5 км - - - -
Четверг, 26 Апреля
Время местн. Темп Ветер Видим Явления Облачность нижн/средн/верх Атм. давл. Влжн Точка росы ВНГО R Сост. почвы Tg s
Напр Скр Прв ур.ст ур.м изм
21:00 +18.9° Ю-З 6 11 20 км - ясно 754 759 +0.8 47% +7.5° более 2.5 км - - - -
18:00 +24.7° Ю-З 5 10 20 км - переменная облачность 753 758 -0.2 36% +8.8° - - - - -
15:00 +26.3° Ю-З 6 11 20 км - незначительная облачность 753 758 -1.4 25% +4.9° 1.5 км - - - -
12:00 +24.5° З 7 12 20 км - незначительная облачность 755 760 -0.4 27% +4.4° 1.5 км - - - -
09:00 +20.6° З,Ю-З 5 - 20 км - переменная облачность 755 760 +0.1 42% +7.4° более 2.5 км - - - -
06:00 +10.8° штиль 0 - 20 км - облачно с прояснениями 755 760 +0.1 81% +7.6° более 2.5 км 0 Сухая (без трещин) +8° -
03:00 +13.7° З 2 - 20 км - переменная облачность 755 760 -0.2 68% +7.9° более 2.5 км - - - -
00:00 +14.1° З 2 - 20 км - переменная облачность 755 761 +0.3 71% +8.9° 1 км - - - -
Среда, 25 Апреля
Время местн. Темп Ветер Видим Явления Облачность нижн/средн/верх Атм. давл. Влжн Точка росы ВНГО R Сост. почвы Tg s
Напр Скр Прв ур.ст ур.м изм
21:00 +17° Ю-З 4 - 20 км - облачно с прояснениями 755 760 +0.5 65% +10.4° 1 км - - - -
18:00 +21.4° С-З 2 - 20 км - облачно с прояснениями 755 760 -0.2 36% +5.9° 1 км 0.3 - - -
15:00 +20.9° З,С-З 2 - 20 км - преимущественно облачно 755 760 -0.8 46% +8.7° 1 км - - - -
12:00 +16.5° З 3 - 20 км - облачно 756 761 +0.1 60% +8.7° 1 км - - - -
09:00 +13.3° З 1 - 20 км небо без изменений {ливневые осадки} облачно 755 761 +0.2 79% +9.7° 1 км - - - -
06:00 +10.4° штиль 0 - 20 км небо без изменений {ливневые осадки} облачно 755 761 -0.1 92% +9.2° 1 км - Влажная (без луж) - -
03:00 +10.4° штиль 0 - 20 км слабый ливневый дождь облачно 755 760 -1 89% +8.6° 1 км - - - -
00:00 +10.6° штиль 0 - 20 км слабый ливневый дождь облачно 756 761 -0.5 85% +8.2° 1 км - - - -
Вторник, 24 Апреля
Время местн. Темп Ветер Видим Явления Облачность нижн/средн/верх Атм. давл. Влжн Точка росы ВНГО R Сост. почвы Tg s
Напр Скр Прв ур.ст ур.м изм
21:00 +14.2° З 2 - 20 км - облачно 757 762 0 47% +3° 1 км - - - -
18:00 +16.7° Ю-З 2 - 20 км - преимущественно облачно 757 762 -1.4 29% -1.3° 1 км - - - -
15:00 +16.1° З 4 - 20 км - облачно 758 763 -1.4 22% -5.4° 1.5 км - - - -
12:00 +13° З 3 - 20 км - переменная облачность 759 765 -0.6 27% -5.6° более 2.5 км - - - -
09:00 +8.8° С 1 - 20 км - ясно 760 765 +0.4 39% -4.5° более 2.5 км - - - -
06:00 -1.2° С 1 - 20 км - ясно 759 765 +0.5 82% -3.9° более 2.5 км - Сухая (без трещин) - -
03:00 -1.7° штиль 0 - 20 км - ясно 759 765 +0.6 83% -4.2° более 2.5 км - - - -